createdAt,value
2018-09-12T00:00:13.151Z,59.70
2018-09-12T00:02:40.442Z,59.80
2018-09-12T00:05:07.791Z,59.70
2018-09-12T00:07:35.091Z,59.70
2018-09-12T00:10:02.451Z,59.60
2018-09-12T00:12:29.749Z,59.70
2018-09-12T00:14:57.044Z,59.60
2018-09-12T00:17:24.353Z,59.70
2018-09-12T00:19:51.649Z,59.80
2018-09-12T00:22:19.223Z,59.80
2018-09-12T00:24:46.547Z,59.80
2018-09-12T00:27:13.855Z,59.80
2018-09-12T00:29:41.171Z,60.00
2018-09-12T00:32:08.475Z,60.00
2018-09-12T00:34:35.783Z,60.10
2018-09-12T00:37:03.072Z,60.20
2018-09-12T00:39:30.380Z,60.30
2018-09-12T00:41:57.670Z,60.20
2018-09-12T00:44:24.995Z,60.30
2018-09-12T00:46:52.300Z,60.30
2018-09-12T00:49:19.583Z,60.40
2018-09-12T00:51:46.871Z,60.40
2018-09-12T00:54:14.175Z,60.30
2018-09-12T00:56:41.486Z,60.50
2018-09-12T00:59:09.035Z,60.70
2018-09-12T01:01:36.469Z,60.50
2018-09-12T01:04:03.781Z,60.70
2018-09-12T01:06:31.110Z,60.90
2018-09-12T01:08:58.402Z,60.80
2018-09-12T01:11:25.721Z,61.00
2018-09-12T01:13:54.493Z,61.00
2018-09-12T01:16:21.808Z,60.90
2018-09-12T01:18:49.150Z,61.00
2018-09-12T01:21:16.463Z,61.00
2018-09-12T01:23:43.757Z,61.10
2018-09-12T01:26:11.047Z,61.40
2018-09-12T01:28:38.352Z,61.50
2018-09-12T01:31:05.799Z,61.60
2018-09-12T01:33:33.312Z,61.60
2018-09-12T01:36:00.604Z,61.40
2018-09-12T01:38:27.892Z,62.40
2018-09-12T01:40:56.209Z,61.60
2018-09-12T01:43:23.501Z,62.00
2018-09-12T01:45:50.990Z,61.70
2018-09-12T01:48:18.300Z,61.80
2018-09-12T01:50:45.606Z,62.00
2018-09-12T01:53:12.891Z,62.20
2018-09-12T01:55:40.187Z,62.30
2018-09-12T01:58:07.504Z,62.30
2018-09-12T02:00:39.657Z,62.30
2018-09-12T02:03:07.143Z,62.40
2018-09-12T02:05:41.115Z,62.60
2018-09-12T02:08:08.439Z,62.60
2018-09-12T02:10:35.755Z,62.80
2018-09-12T02:13:03.100Z,62.80
2018-09-12T02:15:30.632Z,63.10
2018-09-12T02:17:57.941Z,63.30
2018-09-12T02:20:25.351Z,63.30
2018-09-12T02:22:52.688Z,63.40
2018-09-12T02:25:20.365Z,63.50
2018-09-12T02:27:47.669Z,63.70
2018-09-12T02:30:15.063Z,63.80
2018-09-12T02:32:42.536Z,63.80
2018-09-12T02:35:09.858Z,63.90
2018-09-12T02:37:37.233Z,64.10
2018-09-12T02:40:05.556Z,64.40
2018-09-12T02:42:32.862Z,64.30
2018-09-12T02:45:00.160Z,64.50
2018-09-12T02:47:33.255Z,64.70
2018-09-12T02:50:00.580Z,64.70
2018-09-12T02:52:27.876Z,66.00
2018-09-12T02:54:55.237Z,65.30
2018-09-12T02:57:22.562Z,65.30
2018-09-12T02:59:49.977Z,65.30
2018-09-12T03:02:17.319Z,65.40
2018-09-12T03:04:44.620Z,65.50
2018-09-12T03:07:11.943Z,65.60
2018-09-12T03:09:39.260Z,65.40
2018-09-12T03:12:06.552Z,65.30
2018-09-12T03:14:33.846Z,65.30
2018-09-12T03:17:01.200Z,65.20
2018-09-12T03:19:28.491Z,65.00
2018-09-12T03:21:55.819Z,64.70
2018-09-12T03:24:23.196Z,65.40
2018-09-12T03:26:50.786Z,64.30
2018-09-12T03:29:18.169Z,64.20
2018-09-12T03:31:45.511Z,64.10
2018-09-12T03:34:12.959Z,63.80
2018-09-12T03:36:40.249Z,63.60
2018-09-12T03:39:09.295Z,63.40
2018-09-12T03:41:37.063Z,63.20
2018-09-12T03:44:04.363Z,63.10
2018-09-12T03:46:31.693Z,63.20
2018-09-12T03:48:59.332Z,63.50
2018-09-12T03:51:26.703Z,63.30
2018-09-12T03:53:53.987Z,63.50
2018-09-12T03:56:21.399Z,63.60
2018-09-12T03:58:48.749Z,63.50
2018-09-12T04:01:16.055Z,63.50
2018-09-12T04:03:43.385Z,63.60
2018-09-12T04:06:10.678Z,64.40
2018-09-12T04:08:37.976Z,63.70
2018-09-12T04:11:05.267Z,63.90
2018-09-12T04:13:32.585Z,63.80
2018-09-12T04:15:59.894Z,64.00
2018-09-12T04:18:27.192Z,64.10
2018-09-12T04:20:54.503Z,64.20
2018-09-12T04:23:21.792Z,64.30
2018-09-12T04:25:49.096Z,64.40
2018-09-12T04:28:16.599Z,64.50
2018-09-12T04:30:43.893Z,64.70
2018-09-12T04:33:11.181Z,64.80
2018-09-12T04:35:38.492Z,65.50
2018-09-12T04:38:05.809Z,65.10
2018-09-12T04:40:33.107Z,65.10
2018-09-12T04:43:00.395Z,65.20
2018-09-12T04:45:27.707Z,65.30
2018-09-12T04:47:55.060Z,65.40
2018-09-12T04:50:22.367Z,65.40
2018-09-12T04:52:49.685Z,65.50
2018-09-12T04:55:17.091Z,65.60
2018-09-12T04:57:44.405Z,65.80
2018-09-12T05:00:13.016Z,66.00
2018-09-12T05:02:40.327Z,66.10
2018-09-12T05:05:07.661Z,66.10
2018-09-12T05:07:34.967Z,66.20
2018-09-12T05:10:02.298Z,66.30
2018-09-12T05:12:29.580Z,66.30
2018-09-12T05:14:56.891Z,66.20
2018-09-12T05:17:24.197Z,66.30
2018-09-12T05:19:51.523Z,66.50
2018-09-12T05:22:18.822Z,66.40
2018-09-12T05:24:46.138Z,66.80
2018-09-12T05:27:13.435Z,66.90
2018-09-12T05:29:40.728Z,66.90
2018-09-12T05:32:08.040Z,67.10
2018-09-12T05:34:35.356Z,67.00
2018-09-12T05:37:02.669Z,66.70
2018-09-12T05:39:29.956Z,66.40
2018-09-12T05:41:57.250Z,66.30
2018-09-12T05:44:24.552Z,66.00
2018-09-12T05:46:51.893Z,65.90
2018-09-12T05:49:19.225Z,66.00
2018-09-12T05:51:46.507Z,66.10
2018-09-12T05:54:13.839Z,66.10
2018-09-12T05:56:41.459Z,66.20
2018-09-12T05:59:08.788Z,66.40
2018-09-12T06:01:36.141Z,66.40
2018-09-12T06:04:03.489Z,67.20
2018-09-12T06:06:30.831Z,66.40
2018-09-12T06:08:58.108Z,66.50
2018-09-12T06:11:25.432Z,66.60
2018-09-12T06:13:53.127Z,66.70
2018-09-12T06:16:20.378Z,66.80
2018-09-12T06:18:47.736Z,66.90
2018-09-12T06:21:15.092Z,66.70
2018-09-12T06:23:42.405Z,66.50
2018-09-12T06:26:09.689Z,66.50
2018-09-12T06:28:36.992Z,66.90
2018-09-12T06:31:04.577Z,67.10
2018-09-12T06:33:31.896Z,67.00
2018-09-12T06:35:59.193Z,66.80
2018-09-12T06:38:26.524Z,66.50
2018-09-12T06:40:53.795Z,66.20
2018-09-12T06:43:21.126Z,65.90
2018-09-12T06:45:48.644Z,65.80
2018-09-12T06:48:15.931Z,65.90
2018-09-12T06:50:43.281Z,65.90
2018-09-12T06:53:10.581Z,66.10
2018-09-12T06:55:37.916Z,66.00
2018-09-12T06:58:05.260Z,65.90
2018-09-12T07:00:32.650Z,65.90
2018-09-12T07:02:59.903Z,66.40
2018-09-12T07:05:27.193Z,66.10
2018-09-12T07:07:54.485Z,65.80
2018-09-12T07:10:21.786Z,65.70
2018-09-12T07:12:49.107Z,65.80
2018-09-12T07:15:16.417Z,65.80
2018-09-12T07:17:43.706Z,66.00
2018-09-12T07:20:10.996Z,65.90
2018-09-12T07:22:38.349Z,66.00
2018-09-12T07:25:05.824Z,66.10
2018-09-12T07:27:33.165Z,66.00
2018-09-12T07:30:00.617Z,66.10
2018-09-12T07:32:27.924Z,66.10
2018-09-12T07:34:55.239Z,66.10
2018-09-12T07:37:22.516Z,66.20
2018-09-12T07:39:49.801Z,66.20
2018-09-12T07:42:17.106Z,66.10
2018-09-12T07:44:44.465Z,66.00
2018-09-12T07:47:11.747Z,65.90
2018-09-12T07:49:39.070Z,66.00
2018-09-12T07:52:06.412Z,66.10
2018-09-12T07:54:33.722Z,66.00
2018-09-12T07:57:01.043Z,66.00
2018-09-12T07:59:28.353Z,66.00
2018-09-12T08:01:55.649Z,66.20
2018-09-12T08:04:23.214Z,66.30
2018-09-12T08:06:50.524Z,66.40
2018-09-12T08:09:17.892Z,66.80
2018-09-12T08:11:45.216Z,67.00
2018-09-12T08:14:12.699Z,67.00
2018-09-12T08:16:40.064Z,67.00
2018-09-12T08:19:07.505Z,67.00
2018-09-12T08:21:34.799Z,67.00
2018-09-12T08:24:02.328Z,67.30
2018-09-12T08:26:29.677Z,67.10
2018-09-12T08:28:57.247Z,67.30
2018-09-12T08:31:24.991Z,67.20
2018-09-12T08:33:52.300Z,67.00
2018-09-12T08:36:19.728Z,66.80
2018-09-12T08:38:47.025Z,66.70
2018-09-12T08:41:14.376Z,66.50
2018-09-12T08:43:41.717Z,66.30
2018-09-12T08:46:09.032Z,66.00
2018-09-12T08:48:36.340Z,65.70
2018-09-12T08:51:04.126Z,65.50
2018-09-12T08:53:31.445Z,65.20
2018-09-12T08:55:58.756Z,65.20
2018-09-12T08:58:26.079Z,65.40
2018-09-12T09:00:53.420Z,65.60
2018-09-12T09:03:20.759Z,65.50
2018-09-12T09:05:48.093Z,65.50
2018-09-12T09:08:15.408Z,65.00
2018-09-12T09:10:42.714Z,65.10
2018-09-12T09:13:10.220Z,65.00
2018-09-12T09:15:37.608Z,64.70
2018-09-12T09:18:04.951Z,64.90
2018-09-12T09:20:32.284Z,64.40
2018-09-12T09:22:59.607Z,64.30
2018-09-12T09:25:26.940Z,63.90
2018-09-12T09:27:54.293Z,63.30
2018-09-12T09:30:24.333Z,63.10
2018-09-12T09:32:51.645Z,63.00
2018-09-12T09:35:19.049Z,62.60
2018-09-12T09:37:46.342Z,62.20
2018-09-12T09:40:13.701Z,58.70
2018-09-12T09:48:22.613Z,60.10
2018-09-12T09:50:49.875Z,61.50
2018-09-12T09:53:17.180Z,62.80
2018-09-12T09:55:44.499Z,64.20
2018-09-12T09:58:11.820Z,65.80
2018-09-12T10:00:44.783Z,66.00
2018-09-12T10:03:17.643Z,65.70
2018-09-12T10:05:50.864Z,66.00
2018-09-12T10:08:23.876Z,66.40
2018-09-12T10:10:51.243Z,66.50
2018-09-12T10:13:18.579Z,66.90
2018-09-12T10:15:45.920Z,67.70
2018-09-12T10:18:13.247Z,68.30
2018-09-12T10:20:40.548Z,69.30
2018-09-12T10:23:07.845Z,69.80
2018-09-12T10:25:35.189Z,70.40
2018-09-12T10:28:02.483Z,71.00
2018-09-12T10:30:29.996Z,71.50
2018-09-12T10:32:57.287Z,72.30
2018-09-12T10:35:24.619Z,73.20
2018-09-12T10:37:51.929Z,73.40
2018-09-12T10:40:19.255Z,74.20
2018-09-12T10:42:46.568Z,74.30
2018-09-12T10:45:13.872Z,74.00
2018-09-12T10:47:41.179Z,73.90
2018-09-12T10:50:08.494Z,73.60
2018-09-12T10:52:35.787Z,73.80
2018-09-12T10:55:03.148Z,73.70
2018-09-12T10:57:30.435Z,74.30
2018-09-12T10:59:58.601Z,74.30
2018-09-12T11:02:25.921Z,74.60
2018-09-12T11:04:53.216Z,74.60
2018-09-12T11:07:20.536Z,74.60
2018-09-12T11:09:47.879Z,74.40
2018-09-12T11:12:15.184Z,73.90
2018-09-12T11:14:42.529Z,73.70
2018-09-12T11:17:10.058Z,73.70
2018-09-12T11:19:37.428Z,73.70
2018-09-12T11:22:04.763Z,73.70
2018-09-12T11:24:32.146Z,73.90
2018-09-12T11:26:59.446Z,73.10
2018-09-12T11:29:26.773Z,72.40
2018-09-12T11:31:54.065Z,71.80
2018-09-12T11:34:21.478Z,71.80
2018-09-12T11:36:48.663Z,71.70
2018-09-12T11:39:15.975Z,71.80
2018-09-12T11:41:43.267Z,71.80
2018-09-12T11:44:10.556Z,71.90
2018-09-12T11:46:37.848Z,71.80
2018-09-12T11:49:05.240Z,71.50
2018-09-12T11:51:32.533Z,71.10
2018-09-12T11:53:59.937Z,70.80
2018-09-12T11:56:27.260Z,71.30
2018-09-12T11:58:54.602Z,71.70
2018-09-12T12:01:22.005Z,72.10
2018-09-12T12:03:49.453Z,72.20
2018-09-12T12:06:16.767Z,72.50
2018-09-12T12:08:44.088Z,73.10
2018-09-12T12:11:11.454Z,73.60
2018-09-12T12:13:38.788Z,74.00
2018-09-12T12:16:06.127Z,75.40
2018-09-12T12:18:33.479Z,75.00
2018-09-12T12:21:00.796Z,74.90
2018-09-12T12:23:28.140Z,75.20
2018-09-12T12:25:55.544Z,75.10
2018-09-12T12:28:22.872Z,75.10
2018-09-12T12:30:50.203Z,75.00
2018-09-12T12:33:17.532Z,75.00
2018-09-12T12:35:44.823Z,74.20
2018-09-12T12:38:12.123Z,73.50
2018-09-12T12:40:39.451Z,73.80
2018-09-12T12:43:06.759Z,73.70
2018-09-12T12:45:34.092Z,73.90
2018-09-12T12:50:28.944Z,72.40
2018-09-12T12:52:56.259Z,71.70
2018-09-12T12:55:23.573Z,71.80
2018-09-12T12:57:50.895Z,70.50
2018-09-12T13:00:18.195Z,68.80
2018-09-12T13:02:45.515Z,68.60
2018-09-12T13:05:12.822Z,69.00
2018-09-12T13:07:40.241Z,69.30
2018-09-12T13:10:07.671Z,68.10
2018-09-12T13:12:35.044Z,67.80
2018-09-12T13:15:02.391Z,68.00
2018-09-12T13:17:29.771Z,68.00
2018-09-12T13:19:57.134Z,68.30
2018-09-12T13:22:24.508Z,68.10
2018-09-12T13:24:51.835Z,68.30
2018-09-12T13:27:19.261Z,68.40
2018-09-12T13:32:20.807Z,68.70
2018-09-12T13:34:48.132Z,68.90
2018-09-12T13:37:15.448Z,68.90
2018-09-12T13:39:42.767Z,69.00
2018-09-12T13:42:10.093Z,68.90
2018-09-12T13:44:37.419Z,68.80
2018-09-12T13:47:04.771Z,68.80
2018-09-12T13:49:32.093Z,68.80
2018-09-12T13:51:59.410Z,68.90
2018-09-12T13:54:26.851Z,68.90
2018-09-12T13:56:54.171Z,69.20
2018-09-12T13:59:21.528Z,69.70
2018-09-12T14:01:48.828Z,69.90
2018-09-12T14:04:16.157Z,70.10
2018-09-12T14:06:43.492Z,70.10
2018-09-12T14:09:11.299Z,70.40
2018-09-12T14:11:38.658Z,70.30
2018-09-12T14:14:06.159Z,69.90
2018-09-12T14:16:33.551Z,69.70
2018-09-12T14:19:00.843Z,69.60
2018-09-12T14:21:28.152Z,69.10
2018-09-12T14:23:55.472Z,68.70
2018-09-12T14:26:22.776Z,67.90
2018-09-12T14:28:50.083Z,67.70
2018-09-12T14:31:17.483Z,67.60
2018-09-12T14:33:44.803Z,67.90
2018-09-12T14:36:12.182Z,68.40
2018-09-12T14:38:39.520Z,68.40
2018-09-12T14:41:06.884Z,69.00
2018-09-12T14:43:34.248Z,69.60
2018-09-12T14:46:01.574Z,69.50
2018-09-12T14:48:28.878Z,69.40
2018-09-12T14:50:56.197Z,69.60
2018-09-12T14:53:23.551Z,69.30
2018-09-12T14:55:50.894Z,68.90
2018-09-12T14:58:18.228Z,68.90
2018-09-12T15:00:45.551Z,68.90
2018-09-12T15:03:12.911Z,68.30
2018-09-12T15:05:40.207Z,67.80
2018-09-12T15:08:07.549Z,67.60
2018-09-12T15:10:34.932Z,67.60
2018-09-12T15:13:02.242Z,67.50
2018-09-12T15:15:29.565Z,67.80
2018-09-12T15:17:56.908Z,68.10
2018-09-12T15:20:24.243Z,68.00
2018-09-12T15:22:51.580Z,68.20
2018-09-12T15:25:18.892Z,68.50
2018-09-12T15:27:46.190Z,68.20
2018-09-12T15:30:13.531Z,68.20
2018-09-12T15:32:41.135Z,68.00
2018-09-12T15:35:08.504Z,68.00
2018-09-12T15:37:35.800Z,68.20
2018-09-12T15:40:03.188Z,68.20
2018-09-12T15:42:30.515Z,67.60
2018-09-12T15:44:58.011Z,67.60
2018-09-12T15:47:25.330Z,67.90
2018-09-12T15:49:52.684Z,67.90
2018-09-12T15:52:20.031Z,67.90
2018-09-12T15:54:47.424Z,67.90
2018-09-12T15:57:14.891Z,68.00
2018-09-12T15:59:42.287Z,68.00
2018-09-12T16:02:09.651Z,67.90
2018-09-12T16:04:36.959Z,67.90
2018-09-12T16:07:04.354Z,68.00
2018-09-12T16:09:31.703Z,68.20
2018-09-12T16:11:59.032Z,68.40
2018-09-12T16:14:26.376Z,68.40
2018-09-12T16:16:53.816Z,68.50
2018-09-12T16:19:21.109Z,68.50
2018-09-12T16:21:48.439Z,68.40
2018-09-12T16:24:15.784Z,69.00
2018-09-12T16:26:43.105Z,68.40
2018-09-12T16:29:10.437Z,68.20
2018-09-12T16:31:37.868Z,68.30
2018-09-12T16:34:05.365Z,68.20
2018-09-12T16:36:32.765Z,68.40
2018-09-12T16:39:00.176Z,68.40
2018-09-12T16:41:27.543Z,68.50
2018-09-12T16:43:55.339Z,68.40
2018-09-12T16:46:22.725Z,68.10
2018-09-12T16:48:50.208Z,68.10
2018-09-12T16:51:17.564Z,68.30
2018-09-12T16:53:44.929Z,68.00
2018-09-12T16:56:12.380Z,67.90
2018-09-12T16:58:39.643Z,67.70
2018-09-12T17:01:07.137Z,67.70
2018-09-12T17:03:34.538Z,67.70
2018-09-12T17:06:09.099Z,67.80
2018-09-12T17:08:36.474Z,67.60
2018-09-12T17:11:03.915Z,67.60
2018-09-12T17:13:31.479Z,67.60
2018-09-12T17:15:59.431Z,67.60
2018-09-12T17:18:26.811Z,67.70
2018-09-12T17:20:54.119Z,67.60
2018-09-12T17:23:21.467Z,68.20
2018-09-12T17:25:48.808Z,67.30
2018-09-12T17:28:16.172Z,67.10
2018-09-12T17:30:43.525Z,67.30
2018-09-12T17:33:10.869Z,67.40
2018-09-12T17:35:38.211Z,68.50
2018-09-12T17:38:05.579Z,67.90
2018-09-12T17:40:32.926Z,68.10
2018-09-12T17:43:00.255Z,68.20
2018-09-12T17:45:27.810Z,68.20
2018-09-12T17:47:55.159Z,68.50
2018-09-12T17:50:22.489Z,68.70
2018-09-12T17:52:49.845Z,68.80
2018-09-12T17:55:17.209Z,68.80
2018-09-12T17:57:44.555Z,68.80
2018-09-12T18:00:11.941Z,68.90
2018-09-12T18:02:39.281Z,68.70
2018-09-12T18:05:06.932Z,68.70
2018-09-12T18:07:34.276Z,68.50
2018-09-12T18:10:01.715Z,68.30
2018-09-12T18:12:29.057Z,68.30
2018-09-12T18:14:56.376Z,68.30
2018-09-12T18:17:23.713Z,68.20
2018-09-12T18:19:51.160Z,68.20
2018-09-12T18:22:18.503Z,68.30
2018-09-12T18:24:45.960Z,68.20
2018-09-12T18:27:13.254Z,68.10
2018-09-12T18:29:40.669Z,68.10
2018-09-12T18:32:08.043Z,68.10
2018-09-12T18:34:35.351Z,67.90
2018-09-12T18:37:02.929Z,67.90
2018-09-12T18:39:30.281Z,67.50
2018-09-12T18:41:57.846Z,67.30
2018-09-12T18:44:25.171Z,67.00
2018-09-12T18:46:52.503Z,66.90
2018-09-12T18:49:19.811Z,66.90
2018-09-12T18:51:47.151Z,67.00
2018-09-12T18:54:14.664Z,66.80
2018-09-12T18:56:41.993Z,66.90
2018-09-12T18:59:09.298Z,66.80
2018-09-12T19:01:36.631Z,66.80
2018-09-12T19:04:03.950Z,66.80
2018-09-12T19:06:31.240Z,67.00
2018-09-12T19:08:58.554Z,66.90
2018-09-12T19:11:25.869Z,67.00
2018-09-12T19:13:53.300Z,67.00
2018-09-12T19:16:21.198Z,66.90
2018-09-12T19:18:48.528Z,67.20
2018-09-12T19:21:15.900Z,67.20
2018-09-12T19:23:43.276Z,67.40
2018-09-12T19:26:10.578Z,67.70
2018-09-12T19:28:37.903Z,67.70
2018-09-12T19:31:05.457Z,68.20
2018-09-12T19:33:32.771Z,67.90
2018-09-12T19:36:00.176Z,68.10
2018-09-12T19:38:27.407Z,68.30
2018-09-12T19:40:54.772Z,68.30
2018-09-12T19:43:22.431Z,68.30
2018-09-12T19:45:49.735Z,68.40
2018-09-12T19:48:17.050Z,68.50
2018-09-12T19:50:44.388Z,68.60
2018-09-12T19:53:11.690Z,68.60
2018-09-12T19:55:40.121Z,68.60
2018-09-12T19:58:07.425Z,68.60
2018-09-12T20:00:34.741Z,68.50
2018-09-12T20:03:02.094Z,68.60
2018-09-12T20:05:29.416Z,68.50
2018-09-12T20:07:56.768Z,68.40
2018-09-12T20:10:24.125Z,68.30
2018-09-12T20:12:51.439Z,68.20
2018-09-12T20:15:18.867Z,68.20
2018-09-12T20:17:46.212Z,68.30
2018-09-12T20:20:13.572Z,68.30
2018-09-12T20:22:40.895Z,68.20
2018-09-12T20:25:08.284Z,67.90
2018-09-12T20:27:35.646Z,67.70
2018-09-12T20:30:03.130Z,67.50
2018-09-12T20:32:30.410Z,67.40
2018-09-12T20:34:57.716Z,67.50
2018-09-12T20:37:25.055Z,67.30
2018-09-12T20:39:52.715Z,67.20
2018-09-12T20:42:20.030Z,67.00
2018-09-12T20:44:47.519Z,67.20
2018-09-12T20:47:14.865Z,67.70
2018-09-12T20:49:42.195Z,67.70
2018-09-12T20:52:09.538Z,67.90
2018-09-12T20:54:36.871Z,68.00
2018-09-12T20:57:04.419Z,68.30
2018-09-12T20:59:31.823Z,68.40
2018-09-12T21:01:59.157Z,68.70
2018-09-12T21:04:26.492Z,68.70
2018-09-12T21:06:53.875Z,69.00
2018-09-12T21:09:21.171Z,69.20
2018-09-12T21:11:48.502Z,69.30
2018-09-12T21:14:15.942Z,69.30
2018-09-12T21:16:43.276Z,69.50
2018-09-12T21:19:10.589Z,69.60
2018-09-12T21:21:37.929Z,69.80
2018-09-12T21:24:05.500Z,69.80
2018-09-12T21:26:32.832Z,70.10
2018-09-12T21:29:00.372Z,70.20
2018-09-12T21:31:27.748Z,70.40
2018-09-12T21:33:55.064Z,70.40
2018-09-12T21:36:22.590Z,70.50
2018-09-12T21:38:50.041Z,70.20
2018-09-12T21:41:17.617Z,70.60
2018-09-12T21:43:44.955Z,70.80
2018-09-12T21:46:12.297Z,70.80
2018-09-12T21:48:39.625Z,70.70
2018-09-12T21:51:06.928Z,70.70
2018-09-12T21:56:08.343Z,71.00
2018-09-12T21:58:35.722Z,71.00
2018-09-12T22:01:03.137Z,71.00
2018-09-12T22:03:30.482Z,70.90
2018-09-12T22:05:57.831Z,71.00
2018-09-12T22:08:25.176Z,71.00
2018-09-12T22:10:52.641Z,71.20
2018-09-12T22:13:19.971Z,71.20
2018-09-12T22:15:47.274Z,71.50
2018-09-12T22:18:14.790Z,71.60
2018-09-12T22:20:42.112Z,71.90
2018-09-12T22:23:09.438Z,72.10
2018-09-12T22:25:36.771Z,72.10
2018-09-12T22:28:04.100Z,72.20
2018-09-12T22:30:31.454Z,72.30
2018-09-12T22:32:59.064Z,72.20
2018-09-12T22:35:26.386Z,72.20
2018-09-12T22:37:53.799Z,72.30
2018-09-12T22:40:21.097Z,72.50
2018-09-12T22:42:48.406Z,72.30
2018-09-12T22:45:15.716Z,72.20
2018-09-12T22:47:43.023Z,72.30
2018-09-12T22:50:10.340Z,72.30
2018-09-12T22:52:37.640Z,72.30
2018-09-12T22:55:04.989Z,72.50
2018-09-12T22:57:32.291Z,72.60
2018-09-12T22:59:59.605Z,72.50
2018-09-12T23:02:26.897Z,72.70
2018-09-12T23:04:54.204Z,72.90
2018-09-12T23:07:21.521Z,72.90
2018-09-12T23:09:48.812Z,73.10
2018-09-12T23:12:16.090Z,73.20
2018-09-12T23:14:43.636Z,73.20
2018-09-12T23:17:10.919Z,73.20
2018-09-12T23:19:38.194Z,73.50
2018-09-12T23:22:05.499Z,74.60
2018-09-12T23:24:32.803Z,73.90
2018-09-12T23:27:00.112Z,74.20
2018-09-12T23:29:27.436Z,74.40
2018-09-12T23:31:54.727Z,74.30
2018-09-12T23:34:22.010Z,74.30
2018-09-12T23:36:49.324Z,74.30
2018-09-12T23:39:16.619Z,74.40
2018-09-12T23:41:43.932Z,74.40
2018-09-12T23:44:11.494Z,74.40
2018-09-12T23:46:38.829Z,74.30
2018-09-12T23:49:06.840Z,74.20
2018-09-12T23:51:34.139Z,74.20
2018-09-12T23:54:01.475Z,74.00
2018-09-12T23:56:28.834Z,74.20
2018-09-12T23:58:56.208Z,74.20
